Svartfoss — V2PR3 — position and weather

sailwx.info

Track history (hours):
 
Tides and Currents Weather Stations Pressure Air Temp Water Temp Dewpoint Dewpoint Depression Visibility Wind Speed Wind Dir Waves Ship Positions

Svartfoss

Last reported at 2014-Jul-22 08:32 UTC. Time now 2014-Jul-22 09:21 UTC.
Position N 53°35' W 000°04'.

Length 80 m; draft 5.5 m.

Type: Cargo ship. MMSI: 304882000.

Date/timePositionNaut miles runAvg speedWind from/ knotsBaromVisibWave heightAir tempDewpointWater temp
2014-Jul-22 08:32N 53°35' W 000°04'0 0.0
2014-Jul-22 07:33N 53°35' W 000°04'0 0.0
2014-Jul-22 06:32N 53°35' W 000°04'0 0.0
2014-Jul-22 05:32N 53°35' W 000°04'0 0.0
2014-Jul-22 04:32N 53°35' W 000°04'0 0.0
2014-Jul-22 03:32N 53°35' W 000°04'0 0.0
2014-Jul-22 02:32N 53°35' W 000°04'0 0.0
2014-Jul-22 01:32N 53°35' W 000°04'0 0.0
2014-Jul-22 00:32N 53°35' W 000°04'0 0.0
2014-Jul-21 23:32N 53°35' W 000°04'0 0.0
2014-Jul-21 22:32N 53°35' W 000°04'0 0.0
2014-Jul-21 21:32N 53°35' W 000°04'0 0.0
2014-Jul-21 20:32N 53°35' W 000°04'0 0.0
2014-Jul-21 20:17N 53°35' W 000°04'0 0.0
2014-Jul-21 19:32N 53°35' W 000°04'0 0.0
2014-Jul-21 18:32N 53°35' W 000°04'0 0.0
2014-Jul-21 17:32N 53°35' W 000°04'0 0.0
2014-Jul-21 16:32N 53°35' W 000°04'0 0.0
2014-Jul-21 15:32N 53°35' W 000°04'0 0.0
2014-Jul-21 14:32N 53°35' W 000°04'0 0.0
2014-Jul-21 13:31N 53°35' W 000°04'1 0.7
2014-Jul-21 12:33N 53°35' W 000°03'9 8.7
2014-Jul-21 11:34N 53°33' E 000°11'7 6.8
2014-Jul-21 10:34N 53°30' E 000°21'8 7.5
2014-Jul-21 09:34N 53°27' E 000°33'12 9.6
2014-Jul-21 08:22N 53°23' E 000°51'1310.3
2014-Jul-21 07:06N 53°18' E 001°11'1911.9
2014-Jul-21 05:32N 53°10' E 001°39'1212.1
2014-Jul-21 04:32N 53°04' E 001°57'1211.3
2014-Jul-21 03:29N 52°58' E 002°14'5412.3
2014-Jul-20 23:06N 52°37' E 003°36'812.6
2014-Jul-20 22:28N 52°32' E 003°46'1112.3
2014-Jul-20 21:33N 52°30' E 004°04'1212.4
2014-Jul-20 20:33N 52°29' E 004°24'7 7.1
2014-Jul-20 19:34N 52°28' E 004°36'2 2.4
2014-Jul-20 18:33N 52°28' E 004°40'0 0.0
2014-Jul-20 17:33N 52°28' E 004°40'0 0.0
2014-Jul-20 16:33N 52°28' E 004°40'0 0.0
2014-Jul-20 15:33N 52°28' E 004°40'0 0.0
2014-Jul-20 14:33N 52°28' E 004°40'0 0.0
2014-Jul-20 13:33N 52°28' E 004°40'0 0.0
2014-Jul-20 12:33N 52°28' E 004°40'0 0.0
2014-Jul-20 11:33N 52°28' E 004°40'0 0.0
2014-Jul-20 10:33N 52°28' E 004°40'0 0.0
2014-Jul-20 09:33N 52°28' E 004°40'0 0.0
2014-Jul-20 08:33N 52°28' E 004°40'0 0.0
2014-Jul-20 07:33N 52°28' E 004°40'0 0.0
2014-Jul-20 06:33N 52°28' E 004°40'0 0.0
2014-Jul-20 05:33N 52°28' E 004°40'0 0.0
2014-Jul-20 04:33N 52°28' E 004°40'0 0.0
2014-Jul-20 03:33N 52°28' E 004°40'0 0.0
2014-Jul-20 02:33N 52°28' E 004°40'0 0.0
2014-Jul-20 01:33N 52°28' E 004°40'0 0.0
2014-Jul-20 00:33N 52°28' E 004°40'0 0.0
2014-Jul-19 23:33N 52°28' E 004°40'0 0.0
2014-Jul-19 22:33N 52°28' E 004°40'0 0.0
2014-Jul-19 21:33N 52°28' E 004°40'0 0.0
2014-Jul-19 20:33N 52°28' E 004°40'0 0.0
2014-Jul-19 19:33N 52°28' E 004°40'0 0.0
2014-Jul-19 18:33N 52°28' E 004°40'0 0.0
2014-Jul-19 17:33N 52°28' E 004°40'0 0.0
2014-Jul-19 16:33N 52°28' E 004°40'0 0.0
2014-Jul-19 15:33N 52°28' E 004°40'0 0.0
2014-Jul-19 14:33N 52°28' E 004°40'0 0.0
2014-Jul-19 13:33N 52°28' E 004°40'1 1.1
2014-Jul-19 12:33N 52°28' E 004°38'5 5.4
2014-Jul-19 11:33N 52°30' E 004°30'1914.4
2014-Jul-19 10:14N 52°49' E 004°31'2012.1
2014-Jul-19 08:33N 53°10' E 004°29'1312.6
2014-Jul-19 07:33N 53°22' E 004°33'1615.4
2014-Jul-19 06:32N 53°37' E 004°40'1515.6
2014-Jul-19 05:33N 53°52' E 004°48'1515.0
2014-Jul-19 04:33N 54°07' E 004°53'1515.0
2014-Jul-19 03:33N 54°22' E 004°51'  
2014-Jul-16 10:29N 64°46' E 011°02'1313.5
2014-Jul-16 09:33N 64°55' E 011°22'1414.0
2014-Jul-16 08:33N 65°05' E 011°46'56 7.6
2014-Jul-16 01:14N 65°58' E 012°26'1014.2
2014-Jul-16 00:30N 66°06' E 012°43'1414.1
2014-Jul-15 23:32N 66°18' E 012°57'1414.2
2014-Jul-15 22:33N 66°32' E 012°58'228 9.9
2014-Jul-14 23:33N 69°37' E 018°55'1 0.8
2014-Jul-14 22:28N 69°38' E 018°57'0 0.0
2014-Jul-14 21:28N 69°38' E 018°57'  
Track history (hours):
 
Tides and Currents Weather Stations Pressure Air Temp Water Temp Dewpoint Dewpoint Depression Visibility Wind Speed Wind Dir Waves Ship Positions

Svartfoss

Last reported at 2014-Jul-22 08:32 UTC. Time now 2014-Jul-22 09:21 UTC.
Position N 53°35' W 000°04'.

Length 80 m; draft 5.5 m.

Type: Cargo ship. MMSI: 304882000.

Date/timePositionNaut miles runAvg speedWind from/ knotsBaromVisibWave heightAir tempDewpointWater temp
2014-Jul-22 08:32N 53°35' W 000°04'0 0.0
2014-Jul-22 07:33N 53°35' W 000°04'0 0.0
2014-Jul-22 06:32N 53°35' W 000°04'0 0.0
2014-Jul-22 05:32N 53°35' W 000°04'0 0.0
2014-Jul-22 04:32N 53°35' W 000°04'0 0.0
2014-Jul-22 03:32N 53°35' W 000°04'0 0.0
2014-Jul-22 02:32N 53°35' W 000°04'0 0.0
2014-Jul-22 01:32N 53°35' W 000°04'0 0.0
2014-Jul-22 00:32N 53°35' W 000°04'0 0.0
2014-Jul-21 23:32N 53°35' W 000°04'0 0.0
2014-Jul-21 22:32N 53°35' W 000°04'0 0.0
2014-Jul-21 21:32N 53°35' W 000°04'0 0.0
2014-Jul-21 20:32N 53°35' W 000°04'0 0.0
2014-Jul-21 20:17N 53°35' W 000°04'0 0.0
2014-Jul-21 19:32N 53°35' W 000°04'0 0.0
2014-Jul-21 18:32N 53°35' W 000°04'0 0.0
2014-Jul-21 17:32N 53°35' W 000°04'0 0.0
2014-Jul-21 16:32N 53°35' W 000°04'0 0.0
2014-Jul-21 15:32N 53°35' W 000°04'0 0.0
2014-Jul-21 14:32N 53°35' W 000°04'0 0.0
2014-Jul-21 13:31N 53°35' W 000°04'1 0.7
2014-Jul-21 12:33N 53°35' W 000°03'9 8.7
2014-Jul-21 11:34N 53°33' E 000°11'7 6.8
2014-Jul-21 10:34N 53°30' E 000°21'8 7.5
2014-Jul-21 09:34N 53°27' E 000°33'12 9.6
2014-Jul-21 08:22N 53°23' E 000°51'1310.3
2014-Jul-21 07:06N 53°18' E 001°11'1911.9
2014-Jul-21 05:32N 53°10' E 001°39'1212.1
2014-Jul-21 04:32N 53°04' E 001°57'1211.3
2014-Jul-21 03:29N 52°58' E 002°14'5412.3
2014-Jul-20 23:06N 52°37' E 003°36'812.6
2014-Jul-20 22:28N 52°32' E 003°46'1112.3
2014-Jul-20 21:33N 52°30' E 004°04'1212.4
2014-Jul-20 20:33N 52°29' E 004°24'7 7.1
2014-Jul-20 19:34N 52°28' E 004°36'2 2.4
2014-Jul-20 18:33N 52°28' E 004°40'0 0.0
2014-Jul-20 17:33N 52°28' E 004°40'0 0.0
2014-Jul-20 16:33N 52°28' E 004°40'0 0.0
2014-Jul-20 15:33N 52°28' E 004°40'0 0.0
2014-Jul-20 14:33N 52°28' E 004°40'0 0.0
2014-Jul-20 13:33N 52°28' E 004°40'0 0.0
2014-Jul-20 12:33N 52°28' E 004°40'0 0.0
2014-Jul-20 11:33N 52°28' E 004°40'0 0.0
2014-Jul-20 10:33N 52°28' E 004°40'0 0.0
2014-Jul-20 09:33N 52°28' E 004°40'0 0.0
2014-Jul-20 08:33N 52°28' E 004°40'0 0.0
2014-Jul-20 07:33N 52°28' E 004°40'0 0.0
2014-Jul-20 06:33N 52°28' E 004°40'0 0.0
2014-Jul-20 05:33N 52°28' E 004°40'0 0.0
2014-Jul-20 04:33N 52°28' E 004°40'0 0.0
2014-Jul-20 03:33N 52°28' E 004°40'0 0.0
2014-Jul-20 02:33N 52°28' E 004°40'0 0.0
2014-Jul-20 01:33N 52°28' E 004°40'0 0.0
2014-Jul-20 00:33N 52°28' E 004°40'0 0.0
2014-Jul-19 23:33N 52°28' E 004°40'0 0.0
2014-Jul-19 22:33N 52°28' E 004°40'0 0.0
2014-Jul-19 21:33N 52°28' E 004°40'0 0.0
2014-Jul-19 20:33N 52°28' E 004°40'0 0.0
2014-Jul-19 19:33N 52°28' E 004°40'0 0.0
2014-Jul-19 18:33N 52°28' E 004°40'0 0.0
2014-Jul-19 17:33N 52°28' E 004°40'0 0.0
2014-Jul-19 16:33N 52°28' E 004°40'0 0.0
2014-Jul-19 15:33N 52°28' E 004°40'0 0.0
2014-Jul-19 14:33N 52°28' E 004°40'0 0.0
2014-Jul-19 13:33N 52°28' E 004°40'1 1.1
2014-Jul-19 12:33N 52°28' E 004°38'5 5.4
2014-Jul-19 11:33N 52°30' E 004°30'1914.4
2014-Jul-19 10:14N 52°49' E 004°31'2012.1
2014-Jul-19 08:33N 53°10' E 004°29'1312.6
2014-Jul-19 07:33N 53°22' E 004°33'1615.4
2014-Jul-19 06:32N 53°37' E 004°40'1515.6
2014-Jul-19 05:33N 53°52' E 004°48'1515.0
2014-Jul-19 04:33N 54°07' E 004°53'1515.0
2014-Jul-19 03:33N 54°22' E 004°51'  
2014-Jul-16 10:29N 64°46' E 011°02'1313.5
2014-Jul-16 09:33N 64°55' E 011°22'1414.0
2014-Jul-16 08:33N 65°05' E 011°46'56 7.6
2014-Jul-16 01:14N 65°58' E 012°26'1014.2
2014-Jul-16 00:30N 66°06' E 012°43'1414.1
2014-Jul-15 23:32N 66°18' E 012°57'1414.2
2014-Jul-15 22:33N 66°32' E 012°58'228 9.9
2014-Jul-14 23:33N 69°37' E 018°55'1 0.8
2014-Jul-14 22:28N 69°38' E 018°57'0 0.0
2014-Jul-14 21:28N 69°38' E 018°57'  

Dump ship's entire track history